sensor_id;sensor_type;location;lat;lon;timestamp;P1;durP1;ratioP1;P2;durP2;ratioP2
75285;SDS011;63879;46.064;14.532;2023-11-21T07:02:28;8.63;;;6.88;;
75285;SDS011;63879;46.064;14.532;2023-11-21T07:04:54;11.80;;;6.28;;
75285;SDS011;63879;46.064;14.532;2023-11-21T07:07:19;14.60;;;8.43;;
75285;SDS011;63879;46.064;14.532;2023-11-21T07:09:45;11.10;;;8.40;;
75285;SDS011;63879;46.064;14.532;2023-11-21T07:12:10;13.52;;;8.52;;
75285;SDS011;63879;46.064;14.532;2023-11-21T07:14:36;13.30;;;7.65;;
75285;SDS011;63879;46.064;14.532;2023-11-21T07:19:29;8.60;;;6.95;;
75285;SDS011;63879;46.064;14.532;2023-11-21T07:21:54;13.13;;;11.77;;
75285;SDS011;63879;46.064;14.532;2023-11-21T07:24:20;10.82;;;7.57;;
75285;SDS011;63879;46.064;14.532;2023-11-21T07:26:46;16.17;;;7.90;;
75285;SDS011;63879;46.064;14.532;2023-11-21T07:29:11;11.13;;;8.13;;
75285;SDS011;63879;46.064;14.532;2023-11-21T07:31:38;13.15;;;8.32;;
75285;SDS011;63879;46.064;14.532;2023-11-21T07:34:04;14.13;;;8.88;;
75285;SDS011;63879;46.064;14.532;2023-11-21T07:36:30;10.10;;;7.65;;
75285;SDS011;63879;46.064;14.532;2023-11-21T07:38:56;12.23;;;7.10;;
75285;SDS011;63879;46.064;14.532;2023-11-21T07:41:22;8.73;;;6.60;;
75285;SDS011;63879;46.064;14.532;2023-11-21T07:43:47;12.00;;;7.65;;
75285;SDS011;63879;46.064;14.532;2023-11-21T07:46:13;9.88;;;6.15;;
75285;SDS011;63879;46.064;14.532;2023-11-21T07:48:39;11.07;;;7.43;;
75285;SDS011;63879;46.064;14.532;2023-11-21T07:51:06;8.40;;;6.43;;
75285;SDS011;63879;46.064;14.532;2023-11-21T07:53:35;8.50;;;6.85;;
75285;SDS011;63879;46.064;14.532;2023-11-21T07:56:04;11.18;;;6.90;;
75285;SDS011;63879;46.064;14.532;2023-11-21T07:58:31;8.90;;;5.75;;
75285;SDS011;63879;46.064;14.532;2023-11-21T08:00:58;9.30;;;6.82;;
75285;SDS011;63879;46.064;14.532;2023-11-21T08:03:24;10.23;;;7.55;;
75285;SDS011;63879;46.064;14.532;2023-11-21T08:05:51;7.82;;;6.88;;
75285;SDS011;63879;46.064;14.532;2023-11-21T08:08:17;8.13;;;5.47;;
75285;SDS011;63879;46.064;14.532;2023-11-21T08:10:43;8.15;;;5.85;;
75285;SDS011;63879;46.064;14.532;2023-11-21T08:13:12;8.57;;;6.78;;
75285;SDS011;63879;46.064;14.532;2023-11-21T08:15:39;8.52;;;6.30;;
75285;SDS011;63879;46.064;14.532;2023-11-21T08:18:05;10.77;;;7.50;;
75285;SDS011;63879;46.064;14.532;2023-11-21T08:20:32;9.07;;;5.88;;
75285;SDS011;63879;46.064;14.532;2023-11-21T08:23:01;9.10;;;6.70;;
75285;SDS011;63879;46.064;14.532;2023-11-21T08:25:27;10.00;;;6.63;;
75285;SDS011;63879;46.064;14.532;2023-11-21T08:27:53;11.48;;;6.85;;
75285;SDS011;63879;46.064;14.532;2023-11-21T08:30:19;9.30;;;6.25;;
75285;SDS011;63879;46.064;14.532;2023-11-21T08:32:46;11.43;;;8.98;;
75285;SDS011;63879;46.064;14.532;2023-11-21T08:35:11;10.07;;;7.22;;
75285;SDS011;63879;46.064;14.532;2023-11-21T08:37:37;12.05;;;6.00;;
75285;SDS011;63879;46.064;14.532;2023-11-21T08:40:04;9.68;;;6.30;;
75285;SDS011;63879;46.064;14.532;2023-11-21T08:42:35;11.45;;;6.72;;
75285;SDS011;63879;46.064;14.532;2023-11-21T08:45:00;9.95;;;7.05;;
75285;SDS011;63879;46.064;14.532;2023-11-21T08:47:26;6.95;;;6.25;;
75285;SDS011;63879;46.064;14.532;2023-11-21T08:49:52;8.75;;;6.43;;
75285;SDS011;63879;46.064;14.532;2023-11-21T08:52:18;7.88;;;5.90;;
75285;SDS011;63879;46.064;14.532;2023-11-21T08:54:48;8.10;;;5.75;;
75285;SDS011;63879;46.064;14.532;2023-11-21T08:57:20;8.18;;;6.22;;
75285;SDS011;63879;46.064;14.532;2023-11-21T08:59:46;17.85;;;8.60;;
75285;SDS011;63879;46.064;14.532;2023-11-21T09:02:12;14.02;;;7.82;;
75285;SDS011;63879;46.064;14.532;2023-11-21T09:04:37;10.23;;;8.45;;
75285;SDS011;63879;46.064;14.532;2023-11-21T09:07:03;8.60;;;6.47;;
75285;SDS011;63879;46.064;14.532;2023-11-21T09:09:28;8.63;;;7.10;;
75285;SDS011;63879;46.064;14.532;2023-11-21T09:11:55;11.73;;;8.15;;
75285;SDS011;63879;46.064;14.532;2023-11-21T09:14:20;8.88;;;6.00;;
75285;SDS011;63879;46.064;14.532;2023-11-21T09:16:46;10.80;;;7.50;;
75285;SDS011;63879;46.064;14.532;2023-11-21T09:19:12;8.95;;;6.75;;
75285;SDS011;63879;46.064;14.532;2023-11-21T09:21:39;10.05;;;8.25;;
75285;SDS011;63879;46.064;14.532;2023-11-21T09:24:04;8.27;;;6.00;;
75285;SDS011;63879;46.064;14.532;2023-11-21T09:26:30;7.57;;;5.30;;
75285;SDS011;63879;46.064;14.532;2023-11-21T09:28:56;8.52;;;6.82;;
75285;SDS011;63879;46.064;14.532;2023-11-21T09:31:22;11.57;;;6.65;;
75285;SDS011;63879;46.064;14.532;2023-11-21T09:33:58;9.18;;;5.65;;
75285;SDS011;63879;46.064;14.532;2023-11-21T09:36:24;10.43;;;6.07;;
75285;SDS011;63879;46.064;14.532;2023-11-21T09:41:23;9.32;;;6.35;;
75285;SDS011;63879;46.064;14.532;2023-11-21T09:44:00;10.18;;;5.97;;
75285;SDS011;63879;46.064;14.532;2023-11-21T09:46:27;13.30;;;6.07;;
75285;SDS011;63879;46.064;14.532;2023-11-21T09:48:53;12.18;;;6.53;;
75285;SDS011;63879;46.064;14.532;2023-11-21T09:51:21;10.65;;;6.97;;
75285;SDS011;63879;46.064;14.532;2023-11-21T09:56:14;9.27;;;6.55;;
75285;SDS011;63879;46.064;14.532;2023-11-21T09:58:44;10.15;;;6.82;;
75285;SDS011;63879;46.064;14.532;2023-11-21T10:01:09;9.27;;;6.70;;
75285;SDS011;63879;46.064;14.532;2023-11-21T10:03:36;10.18;;;8.20;;
75285;SDS011;63879;46.064;14.532;2023-11-21T10:06:03;8.88;;;6.40;;
75285;SDS011;63879;46.064;14.532;2023-11-21T10:08:30;11.43;;;7.25;;
75285;SDS011;63879;46.064;14.532;2023-11-21T10:10:57;9.15;;;6.07;;
75285;SDS011;63879;46.064;14.532;2023-11-21T10:13:24;8.57;;;7.38;;
75285;SDS011;63879;46.064;14.532;2023-11-21T10:15:51;7.32;;;6.32;;
75285;SDS011;63879;46.064;14.532;2023-11-21T10:18:17;12.57;;;6.82;;
75285;SDS011;63879;46.064;14.532;2023-11-21T10:20:44;7.13;;;5.65;;
75285;SDS011;63879;46.064;14.532;2023-11-21T10:23:16;8.48;;;5.45;;
75285;SDS011;63879;46.064;14.532;2023-11-21T10:25:47;11.77;;;6.30;;
75285;SDS011;63879;46.064;14.532;2023-11-21T10:28:12;7.82;;;7.18;;
75285;SDS011;63879;46.064;14.532;2023-11-21T10:30:38;9.65;;;6.82;;
75285;SDS011;63879;46.064;14.532;2023-11-21T10:33:07;6.47;;;5.72;;
75285;SDS011;63879;46.064;14.532;2023-11-21T10:35:48;12.43;;;6.53;;
75285;SDS011;63879;46.064;14.532;2023-11-21T10:38:16;6.57;;;5.88;;
75285;SDS011;63879;46.064;14.532;2023-11-21T10:40:42;6.53;;;5.15;;
75285;SDS011;63879;46.064;14.532;2023-11-21T10:43:09;6.10;;;4.88;;
75285;SDS011;63879;46.064;14.532;2023-11-21T10:45:38;6.00;;;5.07;;
75285;SDS011;63879;46.064;14.532;2023-11-21T10:48:12;10.38;;;6.60;;
75285;SDS011;63879;46.064;14.532;2023-11-21T10:50:45;5.43;;;4.18;;
75285;SDS011;63879;46.064;14.532;2023-11-21T10:53:11;5.90;;;4.93;;
75285;SDS011;63879;46.064;14.532;2023-11-21T10:55:38;7.55;;;4.97;;
75285;SDS011;63879;46.064;14.532;2023-11-21T10:58:03;5.63;;;4.68;;
75285;SDS011;63879;46.064;14.532;2023-11-21T11:00:31;6.43;;;4.38;;
75285;SDS011;63879;46.064;14.532;2023-11-21T11:02:57;6.03;;;4.78;;
75285;SDS011;63879;46.064;14.532;2023-11-21T11:05:24;6.40;;;4.25;;
75285;SDS011;63879;46.064;14.532;2023-11-21T11:08:08;7.80;;;5.25;;
75285;SDS011;63879;46.064;14.532;2023-11-21T11:10:34;7.93;;;5.35;;
75285;SDS011;63879;46.064;14.532;2023-11-21T11:13:01;4.75;;;3.83;;
75285;SDS011;63879;46.064;14.532;2023-11-21T11:15:27;8.30;;;4.25;;
75285;SDS011;63879;46.064;14.532;2023-11-21T11:17:53;7.35;;;4.82;;
75285;SDS011;63879;46.064;14.532;2023-11-21T11:20:23;8.38;;;5.35;;
75285;SDS011;63879;46.064;14.532;2023-11-21T11:22:54;9.57;;;5.22;;
75285;SDS011;63879;46.064;14.532;2023-11-21T11:28:20;7.80;;;6.20;;
75285;SDS011;63879;46.064;14.532;2023-11-21T11:33:23;9.32;;;6.18;;
75285;SDS011;63879;46.064;14.532;2023-11-21T11:38:51;8.20;;;5.75;;
75285;SDS011;63879;46.064;14.532;2023-11-21T11:41:27;10.50;;;6.43;;
75285;SDS011;63879;46.064;14.532;2023-11-21T11:43:55;7.85;;;5.55;;
75285;SDS011;63879;46.064;14.532;2023-11-21T11:46:21;8.60;;;5.43;;
75285;SDS011;63879;46.064;14.532;2023-11-21T11:49:06;7.25;;;6.00;;
75285;SDS011;63879;46.064;14.532;2023-11-21T11:51:33;8.63;;;5.65;;
75285;SDS011;63879;46.064;14.532;2023-11-21T11:54:00;8.07;;;5.43;;
75285;SDS011;63879;46.064;14.532;2023-11-21T11:58:55;7.15;;;5.60;;
75285;SDS011;63879;46.064;14.532;2023-11-21T12:01:22;9.65;;;6.38;;
75285;SDS011;63879;46.064;14.532;2023-11-21T12:06:42;8.07;;;6.10;;
75285;SDS011;63879;46.064;14.532;2023-11-21T12:09:12;9.45;;;6.15;;
75285;SDS011;63879;46.064;14.532;2023-11-21T12:11:47;6.88;;;5.40;;
75285;SDS011;63879;46.064;14.532;2023-11-21T12:14:14;6.15;;;4.72;;
75285;SDS011;63879;46.064;14.532;2023-11-21T12:16:39;10.32;;;4.93;;
75285;SDS011;63879;46.064;14.532;2023-11-21T12:19:05;7.70;;;5.50;;
75285;SDS011;63879;46.064;14.532;2023-11-21T12:21:31;5.47;;;4.93;;
75285;SDS011;63879;46.064;14.532;2023-11-21T12:23:57;7.68;;;5.57;;
75285;SDS011;63879;46.064;14.532;2023-11-21T12:26:26;8.88;;;4.70;;
75285;SDS011;63879;46.064;14.532;2023-11-21T12:28:52;14.40;;;4.85;;
75285;SDS011;63879;46.064;14.532;2023-11-21T12:31:21;6.97;;;4.10;;
75285;SDS011;63879;46.064;14.532;2023-11-21T12:33:47;5.53;;;4.75;;
75285;SDS011;63879;46.064;14.532;2023-11-21T12:36:13;5.93;;;4.95;;
75285;SDS011;63879;46.064;14.532;2023-11-21T12:38:39;8.90;;;4.78;;
75285;SDS011;63879;46.064;14.532;2023-11-21T12:41:05;8.75;;;5.15;;
75285;SDS011;63879;46.064;14.532;2023-11-21T12:43:31;5.50;;;4.50;;
75285;SDS011;63879;46.064;14.532;2023-11-21T12:46:10;7.25;;;3.97;;
75285;SDS011;63879;46.064;14.532;2023-11-21T12:48:39;6.78;;;3.53;;
75285;SDS011;63879;46.064;14.532;2023-11-21T12:51:09;4.85;;;3.22;;
75285;SDS011;63879;46.064;14.532;2023-11-21T12:53:37;4.18;;;3.22;;
75285;SDS011;63879;46.064;14.532;2023-11-21T12:56:12;8.25;;;3.78;;
75285;SDS011;63879;46.064;14.532;2023-11-21T12:58:38;6.53;;;3.08;;
75285;SDS011;63879;46.064;14.532;2023-11-21T13:01:08;3.70;;;2.95;;
75285;SDS011;63879;46.064;14.532;2023-11-21T13:03:43;3.88;;;2.85;;
75285;SDS011;63879;46.064;14.532;2023-11-21T13:06:13;5.75;;;3.33;;
75285;SDS011;63879;46.064;14.532;2023-11-21T13:08:39;4.82;;;2.88;;
75285;SDS011;63879;46.064;14.532;2023-11-21T13:11:05;2.97;;;2.60;;
75285;SDS011;63879;46.064;14.532;2023-11-21T13:13:31;3.45;;;2.55;;
75285;SDS011;63879;46.064;14.532;2023-11-21T13:16:00;2.90;;;1.52;;
75285;SDS011;63879;46.064;14.532;2023-11-21T13:18:26;3.70;;;2.03;;
75285;SDS011;63879;46.064;14.532;2023-11-21T13:20:53;5.20;;;2.92;;
75285;SDS011;63879;46.064;14.532;2023-11-21T13:23:20;3.05;;;2.50;;
75285;SDS011;63879;46.064;14.532;2023-11-21T13:25:46;5.85;;;3.15;;
75285;SDS011;63879;46.064;14.532;2023-11-21T13:28:13;3.80;;;2.53;;
75285;SDS011;63879;46.064;14.532;2023-11-21T13:30:40;4.85;;;2.92;;
75285;SDS011;63879;46.064;14.532;2023-11-21T13:33:06;2.88;;;2.33;;
75285;SDS011;63879;46.064;14.532;2023-11-21T13:35:33;3.55;;;3.22;;
75285;SDS011;63879;46.064;14.532;2023-11-21T13:38:09;2.72;;;1.98;;
75285;SDS011;63879;46.064;14.532;2023-11-21T13:40:36;3.35;;;2.08;;
75285;SDS011;63879;46.064;14.532;2023-11-21T13:43:10;1.95;;;1.58;;
75285;SDS011;63879;46.064;14.532;2023-11-21T13:45:42;4.20;;;2.60;;
75285;SDS011;63879;46.064;14.532;2023-11-21T13:48:09;3.28;;;2.10;;
75285;SDS011;63879;46.064;14.532;2023-11-21T13:50:39;3.45;;;1.80;;
75285;SDS011;63879;46.064;14.532;2023-11-21T13:53:11;12.75;;;2.38;;
75285;SDS011;63879;46.064;14.532;2023-11-21T13:56:03;3.92;;;1.92;;
75285;SDS011;63879;46.064;14.532;2023-11-21T13:58:28;2.22;;;1.45;;
75285;SDS011;63879;46.064;14.532;2023-11-21T14:01:12;1.95;;;1.75;;
75285;SDS011;63879;46.064;14.532;2023-11-21T14:03:50;2.92;;;1.95;;
75285;SDS011;63879;46.064;14.532;2023-11-21T14:06:22;2.97;;;2.42;;
75285;SDS011;63879;46.064;14.532;2023-11-21T14:08:55;2.88;;;1.52;;
75285;SDS011;63879;46.064;14.532;2023-11-21T14:11:21;2.38;;;1.73;;
75285;SDS011;63879;46.064;14.532;2023-11-21T14:13:47;2.75;;;2.55;;
75285;SDS011;63879;46.064;14.532;2023-11-21T14:16:13;2.05;;;1.50;;
75285;SDS011;63879;46.064;14.532;2023-11-21T14:18:42;3.47;;;2.05;;
75285;SDS011;63879;46.064;14.532;2023-11-21T14:21:18;2.78;;;2.45;;
75285;SDS011;63879;46.064;14.532;2023-11-21T14:23:44;4.47;;;1.88;;
75285;SDS011;63879;46.064;14.532;2023-11-21T14:26:10;3.75;;;3.15;;
75285;SDS011;63879;46.064;14.532;2023-11-21T14:28:38;1.90;;;1.80;;
75285;SDS011;63879;46.064;14.532;2023-11-21T14:31:04;2.65;;;2.45;;
75285;SDS011;63879;46.064;14.532;2023-11-21T14:33:29;1.83;;;1.73;;
75285;SDS011;63879;46.064;14.532;2023-11-21T14:35:55;1.55;;;1.45;;
75285;SDS011;63879;46.064;14.532;2023-11-21T14:38:22;2.35;;;2.15;;
75285;SDS011;63879;46.064;14.532;2023-11-21T14:40:48;3.80;;;3.50;;
75285;SDS011;63879;46.064;14.532;2023-11-21T14:43:14;7.97;;;1.50;;
75285;SDS011;63879;46.064;14.532;2023-11-21T14:45:40;2.70;;;1.50;;
75285;SDS011;63879;46.064;14.532;2023-11-21T14:48:06;3.88;;;1.50;;
75285;SDS011;63879;46.064;14.532;2023-11-21T14:50:35;2.22;;;2.03;;
75285;SDS011;63879;46.064;14.532;2023-11-21T14:53:07;2.13;;;1.85;;
75285;SDS011;63879;46.064;14.532;2023-11-21T14:55:33;4.97;;;2.28;;
75285;SDS011;63879;46.064;14.532;2023-11-21T14:58:18;4.25;;;2.70;;
75285;SDS011;63879;46.064;14.532;2023-11-21T15:00:56;5.45;;;5.05;;
75285;SDS011;63879;46.064;14.532;2023-11-21T15:03:26;2.28;;;1.52;;
75285;SDS011;63879;46.064;14.532;2023-11-21T15:06:01;2.60;;;1.88;;
75285;SDS011;63879;46.064;14.532;2023-11-21T15:09:00;2.70;;;2.13;;
75285;SDS011;63879;46.064;14.532;2023-11-21T15:14:12;1.65;;;1.55;;
75285;SDS011;63879;46.064;14.532;2023-11-21T15:16:41;2.63;;;1.83;;
75285;SDS011;63879;46.064;14.532;2023-11-21T15:19:11;1.95;;;1.75;;
75285;SDS011;63879;46.064;14.532;2023-11-21T15:21:43;2.08;;;1.85;;
75285;SDS011;63879;46.064;14.532;2023-11-21T15:26:36;2.30;;;1.73;;
75285;SDS011;63879;46.064;14.532;2023-11-21T15:29:01;2.75;;;1.55;;
75285;SDS011;63879;46.064;14.532;2023-11-21T15:31:26;2.42;;;1.80;;
75285;SDS011;63879;46.064;14.532;2023-11-21T15:33:52;2.67;;;1.45;;
75285;SDS011;63879;46.064;14.532;2023-11-21T15:36:24;2.53;;;2.30;;
75285;SDS011;63879;46.064;14.532;2023-11-21T15:38:51;2.10;;;1.73;;
75285;SDS011;63879;46.064;14.532;2023-11-21T15:41:17;2.42;;;2.20;;
75285;SDS011;63879;46.064;14.532;2023-11-21T15:43:43;3.60;;;3.28;;
75285;SDS011;63879;46.064;14.532;2023-11-21T15:46:08;2.90;;;2.28;;
75285;SDS011;63879;46.064;14.532;2023-11-21T15:48:34;4.80;;;2.65;;
75285;SDS011;63879;46.064;14.532;2023-11-21T15:51:01;2.58;;;2.38;;
75285;SDS011;63879;46.064;14.532;2023-11-21T15:53:27;2.10;;;2.00;;
75285;SDS011;63879;46.064;14.532;2023-11-21T15:55:53;3.38;;;2.90;;
75285;SDS011;63879;46.064;14.532;2023-11-21T15:58:19;4.18;;;2.78;;
75285;SDS011;63879;46.064;14.532;2023-11-21T16:00:44;5.00;;;4.63;;
75285;SDS011;63879;46.064;14.532;2023-11-21T16:03:10;3.53;;;2.83;;
75285;SDS011;63879;46.064;14.532;2023-11-21T16:05:37;2.95;;;2.67;;
75285;SDS011;63879;46.064;14.532;2023-11-21T16:08:02;4.03;;;2.70;;
75285;SDS011;63879;46.064;14.532;2023-11-21T16:10:28;2.65;;;2.40;;
75285;SDS011;63879;46.064;14.532;2023-11-21T16:12:53;4.57;;;3.05;;
75285;SDS011;63879;46.064;14.532;2023-11-21T16:15:19;5.30;;;2.50;;
75285;SDS011;63879;46.064;14.532;2023-11-21T16:17:45;2.60;;;2.40;;
75285;SDS011;63879;46.064;14.532;2023-11-21T16:20:10;6.88;;;3.42;;
75285;SDS011;63879;46.064;14.532;2023-11-21T16:22:38;3.60;;;2.00;;
75285;SDS011;63879;46.064;14.532;2023-11-21T16:25:05;3.35;;;3.03;;
75285;SDS011;63879;46.064;14.532;2023-11-21T16:27:35;4.85;;;3.20;;
75285;SDS011;63879;46.064;14.532;2023-11-21T16:30:03;3.53;;;3.15;;
75285;SDS011;63879;46.064;14.532;2023-11-21T16:34:55;2.85;;;2.40;;
75285;SDS011;63879;46.064;14.532;2023-11-21T16:37:22;2.63;;;1.92;;
75285;SDS011;63879;46.064;14.532;2023-11-21T16:39:47;4.30;;;2.88;;
75285;SDS011;63879;46.064;14.532;2023-11-21T16:42:13;3.38;;;3.08;;
75285;SDS011;63879;46.064;14.532;2023-11-21T16:44:39;5.40;;;2.40;;
75285;SDS011;63879;46.064;14.532;2023-11-21T16:47:04;4.43;;;2.78;;
75285;SDS011;63879;46.064;14.532;2023-11-21T16:49:33;3.92;;;2.65;;
75285;SDS011;63879;46.064;14.532;2023-11-21T16:52:01;3.13;;;2.15;;
75285;SDS011;63879;46.064;14.532;2023-11-21T16:54:27;3.53;;;2.35;;
75285;SDS011;63879;46.064;14.532;2023-11-21T16:56:53;2.40;;;2.28;;
75285;SDS011;63879;46.064;14.532;2023-11-21T16:59:19;2.20;;;1.92;;
75285;SDS011;63879;46.064;14.532;2023-11-21T17:01:45;3.63;;;2.50;;
75285;SDS011;63879;46.064;14.532;2023-11-21T17:04:11;5.45;;;3.35;;
75285;SDS011;63879;46.064;14.532;2023-11-21T17:06:39;3.13;;;2.17;;
75285;SDS011;63879;46.064;14.532;2023-11-21T17:09:05;3.33;;;2.03;;
75285;SDS011;63879;46.064;14.532;2023-11-21T17:11:34;2.53;;;1.85;;
75285;SDS011;63879;46.064;14.532;2023-11-21T17:14:03;1.95;;;1.58;;
75285;SDS011;63879;46.064;14.532;2023-11-21T17:16:30;2.00;;;1.77;;
75285;SDS011;63879;46.064;14.532;2023-11-21T17:18:56;1.48;;;1.30;;
75285;SDS011;63879;46.064;14.532;2023-11-21T17:21:22;2.63;;;1.55;;
75285;SDS011;63879;46.064;14.532;2023-11-21T17:23:48;4.80;;;3.38;;
75285;SDS011;63879;46.064;14.532;2023-11-21T17:26:13;4.03;;;2.83;;
75285;SDS011;63879;46.064;14.532;2023-11-21T17:28:43;4.93;;;4.43;;
75285;SDS011;63879;46.064;14.532;2023-11-21T17:31:09;4.30;;;2.88;;
75285;SDS011;63879;46.064;14.532;2023-11-21T17:33:35;2.08;;;1.92;;
75285;SDS011;63879;46.064;14.532;2023-11-21T17:36:01;5.82;;;3.35;;
75285;SDS011;63879;46.064;14.532;2023-11-21T17:38:29;3.45;;;3.15;;
75285;SDS011;63879;46.064;14.532;2023-11-21T17:40:54;2.95;;;2.63;;
75285;SDS011;63879;46.064;14.532;2023-11-21T17:43:20;3.22;;;2.88;;
75285;SDS011;63879;46.064;14.532;2023-11-21T17:45:47;3.03;;;2.72;;
75285;SDS011;63879;46.064;14.532;2023-11-21T17:48:16;3.00;;;2.75;;
75285;SDS011;63879;46.064;14.532;2023-11-21T17:50:42;3.90;;;3.00;;
75285;SDS011;63879;46.064;14.532;2023-11-21T17:53:08;8.02;;;7.32;;
75285;SDS011;63879;46.064;14.532;2023-11-21T17:55:34;5.20;;;4.72;;
75285;SDS011;63879;46.064;14.532;2023-11-21T17:57:59;4.82;;;3.83;;
75285;SDS011;63879;46.064;14.532;2023-11-21T18:00:24;6.15;;;4.07;;
75285;SDS011;63879;46.064;14.532;2023-11-21T18:02:51;5.57;;;3.13;;
75285;SDS011;63879;46.064;14.532;2023-11-21T18:05:17;5.30;;;3.17;;
75285;SDS011;63879;46.064;14.532;2023-11-21T18:07:44;5.70;;;3.58;;
75285;SDS011;63879;46.064;14.532;2023-11-21T18:10:09;3.83;;;2.83;;
75285;SDS011;63879;46.064;14.532;2023-11-21T18:12:35;4.93;;;4.18;;
75285;SDS011;63879;46.064;14.532;2023-11-21T18:15:01;8.30;;;3.33;;
75285;SDS011;63879;46.064;14.532;2023-11-21T18:17:26;3.58;;;3.00;;
75285;SDS011;63879;46.064;14.532;2023-11-21T18:19:52;4.03;;;3.38;;
75285;SDS011;63879;46.064;14.532;2023-11-21T18:22:23;6.95;;;4.53;;
75285;SDS011;63879;46.064;14.532;2023-11-21T18:24:52;4.43;;;4.03;;
75285;SDS011;63879;46.064;14.532;2023-11-21T18:27:20;4.15;;;3.33;;
75285;SDS011;63879;46.064;14.532;2023-11-21T18:29:53;5.13;;;3.92;;
75285;SDS011;63879;46.064;14.532;2023-11-21T18:32:24;7.13;;;4.20;;
75285;SDS011;63879;46.064;14.532;2023-11-21T18:34:51;4.88;;;3.40;;
75285;SDS011;63879;46.064;14.532;2023-11-21T18:37:16;4.95;;;4.55;;
75285;SDS011;63879;46.064;14.532;2023-11-21T18:39:43;4.43;;;3.78;;
75285;SDS011;63879;46.064;14.532;2023-11-21T18:42:12;3.53;;;3.22;;
75285;SDS011;63879;46.064;14.532;2023-11-21T18:44:44;9.23;;;8.38;;
75285;SDS011;63879;46.064;14.532;2023-11-21T18:47:11;6.85;;;5.90;;
75285;SDS011;63879;46.064;14.532;2023-11-21T18:49:40;7.35;;;4.15;;
75285;SDS011;63879;46.064;14.532;2023-11-21T18:52:06;5.00;;;3.45;;
75285;SDS011;63879;46.064;14.532;2023-11-21T18:54:35;9.23;;;5.65;;
75285;SDS011;63879;46.064;14.532;2023-11-21T18:57:00;8.73;;;5.90;;
75285;SDS011;63879;46.064;14.532;2023-11-21T18:59:26;8.63;;;4.15;;
75285;SDS011;63879;46.064;14.532;2023-11-21T19:01:51;7.35;;;5.05;;
75285;SDS011;63879;46.064;14.532;2023-11-21T19:04:17;4.90;;;3.78;;
75285;SDS011;63879;46.064;14.532;2023-11-21T19:06:45;8.48;;;4.50;;
75285;SDS011;63879;46.064;14.532;2023-11-21T19:09:12;7.85;;;5.55;;
75285;SDS011;63879;46.064;14.532;2023-11-21T19:11:37;8.55;;;5.63;;
75285;SDS011;63879;46.064;14.532;2023-11-21T19:14:03;7.65;;;6.95;;
75285;SDS011;63879;46.064;14.532;2023-11-21T19:16:28;7.22;;;4.70;;
75285;SDS011;63879;46.064;14.532;2023-11-21T19:18:54;6.25;;;4.57;;
75285;SDS011;63879;46.064;14.532;2023-11-21T19:21:19;7.57;;;5.07;;
75285;SDS011;63879;46.064;14.532;2023-11-21T19:23:45;9.32;;;5.38;;
75285;SDS011;63879;46.064;14.532;2023-11-21T19:26:11;7.68;;;5.72;;
75285;SDS011;63879;46.064;14.532;2023-11-21T19:28:37;10.27;;;6.45;;
75285;SDS011;63879;46.064;14.532;2023-11-21T19:31:03;7.72;;;6.32;;
75285;SDS011;63879;46.064;14.532;2023-11-21T19:33:32;8.80;;;5.13;;
75285;SDS011;63879;46.064;14.532;2023-11-21T19:35:58;12.70;;;6.63;;
75285;SDS011;63879;46.064;14.532;2023-11-21T19:38:23;6.03;;;4.05;;
75285;SDS011;63879;46.064;14.532;2023-11-21T19:40:49;7.20;;;4.85;;
75285;SDS011;63879;46.064;14.532;2023-11-21T19:43:15;5.85;;;3.83;;
75285;SDS011;63879;46.064;14.532;2023-11-21T19:45:40;8.93;;;6.90;;
75285;SDS011;63879;46.064;14.532;2023-11-21T19:48:06;5.45;;;4.53;;
75285;SDS011;63879;46.064;14.532;2023-11-21T19:50:33;6.60;;;4.80;;
75285;SDS011;63879;46.064;14.532;2023-11-21T19:52:59;4.45;;;2.90;;
75285;SDS011;63879;46.064;14.532;2023-11-21T19:55:25;8.05;;;5.15;;
75285;SDS011;63879;46.064;14.532;2023-11-21T19:57:50;13.02;;;4.03;;
75285;SDS011;63879;46.064;14.532;2023-11-21T20:00:15;7.07;;;4.05;;
75285;SDS011;63879;46.064;14.532;2023-11-21T20:02:42;7.68;;;4.65;;
75285;SDS011;63879;46.064;14.532;2023-11-21T20:05:08;8.70;;;3.97;;
75285;SDS011;63879;46.064;14.532;2023-11-21T20:07:34;6.15;;;3.85;;
75285;SDS011;63879;46.064;14.532;2023-11-21T20:10:00;6.00;;;3.47;;
75285;SDS011;63879;46.064;14.532;2023-11-21T20:12:26;5.78;;;3.10;;
75285;SDS011;63879;46.064;14.532;2023-11-21T20:17:19;6.00;;;3.17;;
75285;SDS011;63879;46.064;14.532;2023-11-21T20:19:45;7.38;;;4.15;;
75285;SDS011;63879;46.064;14.532;2023-11-21T20:22:10;4.35;;;3.47;;
75285;SDS011;63879;46.064;14.532;2023-11-21T20:24:37;6.55;;;3.53;;
75285;SDS011;63879;46.064;14.532;2023-11-21T20:27:03;7.43;;;4.57;;
75285;SDS011;63879;46.064;14.532;2023-11-21T20:29:30;6.00;;;3.63;;
75285;SDS011;63879;46.064;14.532;2023-11-21T20:31:59;6.63;;;4.93;;
75285;SDS011;63879;46.064;14.532;2023-11-21T20:34:25;6.03;;;4.50;;
75285;SDS011;63879;46.064;14.532;2023-11-21T20:36:51;8.05;;;3.80;;
75285;SDS011;63879;46.064;14.532;2023-11-21T20:39:17;5.22;;;4.55;;
75285;SDS011;63879;46.064;14.532;2023-11-21T20:41:43;6.18;;;5.57;;
75285;SDS011;63879;46.064;14.532;2023-11-21T20:44:09;8.30;;;3.88;;
75285;SDS011;63879;46.064;14.532;2023-11-21T20:46:41;9.38;;;3.75;;
75285;SDS011;63879;46.064;14.532;2023-11-21T20:49:13;6.45;;;5.20;;
75285;SDS011;63879;46.064;14.532;2023-11-21T20:51:39;7.57;;;3.80;;
75285;SDS011;63879;46.064;14.532;2023-11-21T20:54:05;9.18;;;8.38;;
75285;SDS011;63879;46.064;14.532;2023-11-21T20:56:31;10.85;;;4.72;;
75285;SDS011;63879;46.064;14.532;2023-11-21T20:58:57;7.20;;;5.75;;
75285;SDS011;63879;46.064;14.532;2023-11-21T21:01:25;6.40;;;4.20;;
75285;SDS011;63879;46.064;14.532;2023-11-21T21:03:51;8.18;;;5.03;;
75285;SDS011;63879;46.064;14.532;2023-11-21T21:06:16;8.93;;;5.38;;
75285;SDS011;63879;46.064;14.532;2023-11-21T21:08:42;7.53;;;4.72;;
75285;SDS011;63879;46.064;14.532;2023-11-21T21:11:07;8.55;;;5.93;;
75285;SDS011;63879;46.064;14.532;2023-11-21T21:13:35;5.65;;;4.60;;
75285;SDS011;63879;46.064;14.532;2023-11-21T21:16:00;6.18;;;4.10;;
75285;SDS011;63879;46.064;14.532;2023-11-21T21:18:26;7.13;;;3.78;;
75285;SDS011;63879;46.064;14.532;2023-11-21T21:20:55;6.88;;;4.18;;
75285;SDS011;63879;46.064;14.532;2023-11-21T21:23:21;7.95;;;7.28;;
75285;SDS011;63879;46.064;14.532;2023-11-21T21:25:46;7.90;;;5.22;;
75285;SDS011;63879;46.064;14.532;2023-11-21T21:28:12;6.78;;;4.68;;
75285;SDS011;63879;46.064;14.532;2023-11-21T21:30:40;6.82;;;4.95;;
75285;SDS011;63879;46.064;14.532;2023-11-21T21:33:10;6.57;;;5.28;;
75285;SDS011;63879;46.064;14.532;2023-11-21T21:35:35;7.28;;;4.70;;
75285;SDS011;63879;46.064;14.532;2023-11-21T21:38:01;8.77;;;4.57;;
75285;SDS011;63879;46.064;14.532;2023-11-21T21:40:27;8.00;;;6.13;;
75285;SDS011;63879;46.064;14.532;2023-11-21T21:42:55;6.20;;;5.00;;
75285;SDS011;63879;46.064;14.532;2023-11-21T21:45:21;10.15;;;6.70;;
75285;SDS011;63879;46.064;14.532;2023-11-21T21:47:47;12.15;;;6.72;;
75285;SDS011;63879;46.064;14.532;2023-11-21T21:50:13;12.90;;;8.05;;
75285;SDS011;63879;46.064;14.532;2023-11-21T21:52:40;9.90;;;5.85;;
75285;SDS011;63879;46.064;14.532;2023-11-21T21:55:07;11.85;;;6.60;;
75285;SDS011;63879;46.064;14.532;2023-11-21T21:57:35;10.38;;;5.53;;
